createdAt,value
2022-10-05T00:00:16.090Z,14.60
2022-10-05T00:02:46.474Z,14.50
2022-10-05T00:05:31.836Z,14.60
2022-10-05T00:08:11.570Z,14.60
2022-10-05T00:10:41.110Z,14.50
2022-10-05T00:13:13.545Z,14.50
2022-10-05T00:15:41.434Z,14.50
2022-10-05T00:18:16.929Z,14.50
2022-10-05T00:20:45.752Z,14.50
2022-10-05T00:23:19.412Z,14.50
2022-10-05T00:25:47.740Z,14.40
2022-10-05T00:28:27.547Z,14.40
2022-10-05T00:30:57.194Z,14.40
2022-10-05T00:33:26.575Z,14.30
2022-10-05T00:35:55.377Z,14.30
2022-10-05T00:38:23.439Z,14.30
2022-10-05T00:41:03.092Z,14.30
2022-10-05T00:43:56.313Z,14.30
2022-10-05T00:46:27.835Z,14.20
2022-10-05T00:49:08.648Z,14.20
2022-10-05T00:51:38.879Z,14.20
2022-10-05T00:54:25.071Z,14.10
2022-10-05T00:57:09.329Z,14.10
2022-10-05T00:59:47.334Z,14.10
2022-10-05T01:02:22.017Z,14.10
2022-10-05T01:04:57.629Z,14.10
2022-10-05T01:07:36.128Z,14.10
2022-10-05T01:10:12.806Z,14.10
2022-10-05T01:12:49.542Z,14.10
2022-10-05T01:15:25.061Z,14.10
2022-10-05T01:18:01.588Z,14.10
2022-10-05T01:20:45.080Z,14.10
2022-10-05T01:23:49.626Z,14.10
2022-10-05T01:26:37.510Z,14.10
2022-10-05T01:29:15.403Z,14.10
2022-10-05T01:31:50.222Z,14.10
2022-10-05T01:34:23.831Z,14.10
2022-10-05T01:36:58.826Z,14.10
2022-10-05T01:39:36.012Z,14.10
2022-10-05T01:42:14.336Z,14.10
2022-10-05T01:44:52.046Z,14.10
2022-10-05T01:47:29.667Z,14.10
2022-10-05T01:50:02.325Z,14.10
2022-10-05T01:52:40.535Z,14.10
2022-10-05T01:55:19.542Z,14.10
2022-10-05T01:58:06.061Z,14.10
2022-10-05T02:00:43.660Z,14.10
2022-10-05T02:03:17.063Z,14.00
2022-10-05T02:05:51.236Z,14.00
2022-10-05T02:08:24.921Z,14.00
2022-10-05T02:10:58.793Z,14.00
2022-10-05T02:13:31.632Z,14.00
2022-10-05T02:16:04.200Z,13.90
2022-10-05T02:18:37.703Z,13.90
2022-10-05T02:21:06.493Z,13.90
2022-10-05T02:23:37.802Z,13.90
2022-10-05T02:26:07.791Z,13.80
2022-10-05T02:28:40.262Z,13.80
2022-10-05T02:31:12.217Z,13.80
2022-10-05T02:33:40.343Z,13.80
2022-10-05T02:36:14.765Z,13.80
2022-10-05T02:38:55.522Z,13.80
2022-10-05T02:41:32.345Z,13.70
2022-10-05T02:44:11.875Z,13.80
2022-10-05T02:46:50.779Z,13.70
2022-10-05T02:49:31.023Z,13.80
2022-10-05T02:52:06.463Z,13.70
2022-10-05T02:54:43.618Z,13.60
2022-10-05T02:57:22.580Z,13.60
2022-10-05T02:59:58.172Z,13.60
2022-10-05T03:02:33.011Z,13.60
2022-10-05T03:05:13.773Z,13.70
2022-10-05T03:07:49.807Z,13.70
2022-10-05T03:10:27.778Z,13.70
2022-10-05T03:13:03.176Z,13.60
2022-10-05T03:15:54.614Z,13.60
2022-10-05T03:18:34.787Z,13.70
2022-10-05T03:21:16.155Z,13.70
2022-10-05T03:23:59.127Z,13.60
2022-10-05T03:26:39.879Z,13.70
2022-10-05T03:29:20.242Z,13.60
2022-10-05T03:31:55.115Z,13.50
2022-10-05T03:34:32.280Z,13.50
2022-10-05T03:37:05.658Z,13.50
2022-10-05T03:39:38.852Z,13.50
2022-10-05T03:42:13.676Z,13.50
2022-10-05T03:44:50.043Z,13.50
2022-10-05T03:47:26.273Z,13.50
2022-10-05T03:50:12.622Z,13.50
2022-10-05T03:52:46.407Z,13.50
2022-10-05T03:55:22.141Z,13.50
2022-10-05T03:57:52.065Z,13.50
2022-10-05T04:00:23.122Z,13.50
2022-10-05T04:02:55.330Z,13.50
2022-10-05T04:05:28.627Z,13.40
2022-10-05T04:08:00.708Z,13.40
2022-10-05T04:10:35.259Z,13.40
2022-10-05T04:13:07.945Z,13.40
2022-10-05T04:15:41.543Z,13.40
2022-10-05T04:18:18.293Z,13.40
2022-10-05T04:20:52.340Z,13.40
2022-10-05T04:23:27.910Z,13.40
2022-10-05T04:26:00.375Z,13.30
2022-10-05T04:28:38.332Z,13.30
2022-10-05T04:31:11.251Z,13.30
2022-10-05T04:33:39.193Z,13.30
2022-10-05T04:36:17.940Z,13.30
2022-10-05T04:38:54.972Z,13.40
2022-10-05T04:41:45.104Z,13.40
2022-10-05T04:44:43.825Z,13.40
2022-10-05T04:47:49.876Z,13.40
2022-10-05T04:50:24.835Z,13.40
2022-10-05T04:53:04.087Z,13.40
2022-10-05T04:55:38.888Z,13.40
2022-10-05T04:58:20.184Z,13.30
2022-10-05T05:01:00.694Z,13.30
2022-10-05T05:03:47.919Z,13.30
2022-10-05T05:06:29.146Z,13.30
2022-10-05T05:09:33.462Z,13.40
2022-10-05T05:12:18.104Z,13.30
2022-10-05T05:14:59.325Z,13.20
2022-10-05T05:17:44.072Z,13.20
2022-10-05T05:20:21.322Z,13.20
2022-10-05T05:22:54.241Z,13.20
2022-10-05T05:25:35.415Z,13.10
2022-10-05T05:28:12.814Z,13.20
2022-10-05T05:30:45.337Z,13.20
2022-10-05T05:33:21.788Z,13.20
2022-10-05T05:36:20.715Z,13.10
2022-10-05T05:39:01.348Z,13.10
2022-10-05T05:41:38.511Z,13.10
2022-10-05T05:44:18.159Z,13.10
2022-10-05T05:47:03.622Z,13.20
2022-10-05T05:49:47.930Z,13.20
2022-10-05T05:52:22.535Z,13.20
2022-10-05T05:54:56.114Z,13.20
2022-10-05T05:57:30.712Z,13.20
2022-10-05T06:00:06.549Z,13.20
2022-10-05T06:02:43.958Z,13.30
2022-10-05T06:05:31.208Z,13.30
2022-10-05T06:08:02.722Z,13.30
2022-10-05T06:10:41.270Z,13.30
2022-10-05T06:13:17.860Z,13.30
2022-10-05T06:15:50.583Z,13.30
2022-10-05T06:18:21.695Z,13.30
2022-10-05T06:20:56.976Z,13.30
2022-10-05T06:23:30.859Z,13.30
2022-10-05T06:26:12.472Z,13.40
2022-10-05T06:28:42.867Z,13.30
2022-10-05T06:31:24.969Z,13.40
2022-10-05T06:33:54.826Z,13.40
2022-10-05T06:36:35.962Z,13.40
2022-10-05T06:39:32.511Z,13.40
2022-10-05T06:42:29.459Z,13.40
2022-10-05T06:45:07.744Z,13.50
2022-10-05T06:47:45.843Z,13.50
2022-10-05T06:50:19.333Z,13.40
2022-10-05T06:53:00.447Z,13.50
2022-10-05T06:55:35.021Z,13.60
2022-10-05T06:58:21.733Z,13.60
2022-10-05T07:00:55.568Z,13.60
2022-10-05T07:03:32.103Z,13.70
2022-10-05T07:06:11.925Z,13.70
2022-10-05T07:08:55.326Z,13.80
2022-10-05T07:11:54.657Z,13.80
2022-10-05T07:14:36.674Z,13.80
2022-10-05T07:17:22.020Z,13.80
2022-10-05T07:19:58.241Z,13.90
2022-10-05T07:22:42.614Z,13.90
2022-10-05T07:25:15.940Z,13.90
2022-10-05T07:27:51.749Z,13.90
2022-10-05T07:30:20.762Z,14.00
2022-10-05T07:33:00.787Z,14.00
2022-10-05T07:35:57.992Z,14.00
2022-10-05T07:38:32.923Z,14.00
2022-10-05T07:41:07.318Z,14.10
2022-10-05T07:44:00.973Z,14.10
2022-10-05T07:46:36.594Z,14.10
2022-10-05T07:49:14.834Z,14.10
2022-10-05T07:51:46.255Z,14.10
2022-10-05T07:54:25.974Z,14.10
2022-10-05T07:56:59.783Z,14.10
2022-10-05T07:59:35.610Z,14.20
2022-10-05T08:02:13.610Z,14.30
2022-10-05T08:04:52.389Z,14.30
2022-10-05T08:07:20.405Z,14.30
2022-10-05T08:09:53.078Z,14.30
2022-10-05T08:12:29.585Z,14.30
2022-10-05T08:14:59.579Z,14.30
2022-10-05T08:17:36.567Z,14.40
2022-10-05T08:20:36.686Z,14.40
2022-10-05T08:23:14.143Z,14.40
2022-10-05T08:25:52.329Z,14.40
2022-10-05T08:28:24.685Z,14.40
2022-10-05T08:31:04.375Z,14.50
2022-10-05T08:33:41.880Z,14.50
2022-10-05T08:36:14.339Z,14.50
2022-10-05T08:38:42.992Z,14.60
2022-10-05T08:41:43.595Z,14.70
2022-10-05T08:44:43.100Z,14.70
2022-10-05T08:47:20.559Z,14.70
2022-10-05T08:50:08.740Z,14.80
2022-10-05T08:52:52.980Z,14.80
2022-10-05T08:55:44.560Z,14.90
2022-10-05T08:58:31.091Z,15.00
2022-10-05T09:01:07.816Z,15.00
2022-10-05T09:03:51.726Z,15.00
2022-10-05T09:06:30.952Z,15.10
2022-10-05T09:09:32.038Z,15.20
2022-10-05T09:12:18.738Z,15.30
2022-10-05T09:15:20.894Z,15.30
2022-10-05T09:18:19.453Z,15.40
2022-10-05T09:20:52.957Z,15.40
2022-10-05T09:23:37.048Z,15.40
2022-10-05T09:26:09.843Z,15.50
2022-10-05T09:28:55.732Z,15.60
2022-10-05T09:31:42.054Z,15.60
2022-10-05T09:34:33.743Z,15.60
2022-10-05T09:37:33.214Z,15.50
2022-10-05T09:40:41.352Z,15.60
2022-10-05T09:43:43.038Z,15.60
2022-10-05T09:46:49.600Z,15.60
2022-10-05T09:49:45.951Z,15.70
2022-10-05T09:52:37.245Z,15.70
2022-10-05T09:55:47.081Z,15.80
2022-10-05T09:58:39.475Z,15.90
2022-10-05T10:01:35.067Z,16.00
2022-10-05T10:04:24.698Z,16.10
2022-10-05T10:07:18.964Z,16.20
2022-10-05T10:10:05.235Z,16.40
2022-10-05T10:12:58.878Z,16.60
2022-10-05T10:15:52.387Z,16.80
2022-10-05T10:18:37.304Z,16.90
2022-10-05T10:21:42.098Z,17.00
2022-10-05T10:24:19.883Z,17.10
2022-10-05T10:27:05.743Z,17.20
2022-10-05T10:30:19.630Z,17.40
2022-10-05T10:33:15.515Z,17.50
2022-10-05T10:35:51.775Z,17.70
2022-10-05T10:38:37.865Z,17.90
2022-10-05T10:41:40.138Z,18.00
2022-10-05T10:44:39.914Z,18.20
2022-10-05T10:47:49.183Z,18.30
2022-10-05T10:50:55.233Z,18.40
2022-10-05T10:54:04.670Z,18.70
2022-10-05T10:56:51.859Z,19.00
2022-10-05T10:59:56.494Z,19.40
2022-10-05T11:02:52.484Z,19.50
2022-10-05T11:05:35.528Z,19.60
2022-10-05T11:08:29.807Z,19.50
2022-10-05T11:11:24.751Z,19.40
2022-10-05T11:14:23.714Z,19.50
2022-10-05T11:17:17.117Z,19.90
2022-10-05T11:20:03.183Z,20.50
2022-10-05T11:22:53.498Z,22.30
2022-10-05T11:25:41.383Z,24.30
2022-10-05T11:28:30.365Z,24.30
2022-10-05T11:31:23.774Z,25.50
2022-10-05T11:34:21.530Z,27.20
2022-10-05T11:37:08.272Z,29.00
2022-10-05T11:39:46.007Z,29.60
2022-10-05T11:42:51.572Z,30.40
2022-10-05T11:45:26.277Z,30.90
2022-10-05T11:48:28.212Z,31.60
2022-10-05T11:51:14.320Z,32.40
2022-10-05T11:53:51.265Z,32.30
2022-10-05T11:56:26.873Z,32.20
2022-10-05T11:59:02.703Z,33.00
2022-10-05T12:01:37.023Z,33.80
2022-10-05T12:04:15.414Z,34.50
2022-10-05T12:07:00.505Z,34.80
2022-10-05T12:10:03.569Z,36.10
2022-10-05T12:12:36.789Z,36.70
2022-10-05T12:15:18.058Z,37.50
2022-10-05T12:17:53.387Z,37.60
2022-10-05T12:20:29.222Z,37.90
2022-10-05T12:23:02.470Z,38.10
2022-10-05T12:25:36.570Z,38.70
2022-10-05T12:28:10.793Z,40.20
2022-10-05T12:31:07.481Z,40.40
2022-10-05T12:33:40.257Z,38.90
2022-10-05T12:36:14.572Z,39.00
2022-10-05T12:38:46.948Z,39.50
2022-10-05T12:41:21.451Z,39.60
2022-10-05T12:44:03.153Z,39.40
2022-10-05T12:46:42.019Z,39.80
2022-10-05T12:49:34.404Z,39.70
2022-10-05T12:52:05.212Z,39.60
2022-10-05T12:54:48.413Z,40.00
2022-10-05T12:57:25.293Z,40.20
2022-10-05T12:59:59.534Z,39.90
2022-10-05T13:02:39.020Z,38.90
2022-10-05T13:05:23.586Z,37.90
2022-10-05T13:08:04.170Z,36.90
2022-10-05T13:10:37.002Z,37.70
2022-10-05T13:13:33.533Z,37.90
2022-10-05T13:16:15.451Z,37.90
2022-10-05T13:18:55.958Z,37.90
2022-10-05T13:21:34.156Z,37.90
2022-10-05T13:24:07.933Z,37.20
2022-10-05T13:26:38.624Z,37.20
2022-10-05T13:29:17.346Z,37.00
2022-10-05T13:31:47.907Z,36.40
2022-10-05T13:34:28.956Z,36.70
2022-10-05T13:37:08.517Z,36.60
2022-10-05T13:39:52.951Z,37.40
2022-10-05T13:42:28.811Z,36.90
2022-10-05T13:45:00.871Z,36.70
2022-10-05T13:47:35.516Z,37.10
2022-10-05T13:50:15.155Z,36.60
2022-10-05T13:52:53.030Z,37.10
2022-10-05T13:55:39.133Z,37.30
2022-10-05T13:58:13.933Z,37.00
2022-10-05T14:00:48.341Z,36.70
2022-10-05T14:03:28.326Z,36.70
2022-10-05T14:05:59.802Z,36.20
2022-10-05T14:08:30.376Z,36.00
2022-10-05T14:10:58.304Z,35.50
2022-10-05T14:13:30.348Z,34.60
2022-10-05T14:16:23.004Z,34.90
2022-10-05T14:18:59.859Z,35.30
2022-10-05T14:21:31.610Z,34.90
2022-10-05T14:24:32.121Z,34.70
2022-10-05T14:27:22.093Z,35.10
2022-10-05T14:29:57.710Z,35.70
2022-10-05T14:32:26.983Z,36.30
2022-10-05T14:35:06.094Z,35.60
2022-10-05T14:37:47.428Z,34.90
2022-10-05T14:40:37.317Z,34.20
2022-10-05T14:43:20.923Z,33.80
2022-10-05T14:46:03.068Z,34.10
2022-10-05T14:48:42.506Z,34.10
2022-10-05T14:51:12.330Z,33.50
2022-10-05T14:53:43.275Z,33.00
2022-10-05T14:56:33.117Z,33.00
2022-10-05T14:59:35.517Z,32.90
2022-10-05T15:02:31.647Z,31.50
2022-10-05T15:05:02.744Z,30.80
2022-10-05T15:07:36.030Z,29.40
2022-10-05T15:10:19.558Z,29.10
2022-10-05T15:12:48.408Z,28.40
2022-10-05T15:15:26.983Z,27.80
2022-10-05T15:18:00.326Z,27.50
2022-10-05T15:20:36.694Z,26.90
2022-10-05T15:23:24.729Z,26.20
2022-10-05T15:26:05.046Z,25.90
2022-10-05T15:28:39.976Z,25.40
2022-10-05T15:31:24.642Z,25.10
2022-10-05T15:34:01.159Z,24.90
2022-10-05T15:36:37.046Z,24.60
2022-10-05T15:39:21.458Z,24.30
2022-10-05T15:42:00.331Z,24.00
2022-10-05T15:44:52.034Z,23.80
2022-10-05T15:47:26.052Z,23.70
2022-10-05T15:50:03.095Z,23.70
2022-10-05T15:52:37.030Z,23.50
2022-10-05T15:55:32.122Z,23.10
2022-10-05T15:58:31.381Z,23.10
2022-10-05T16:01:06.116Z,23.00
2022-10-05T16:03:43.577Z,22.90
2022-10-05T16:06:37.894Z,22.80
2022-10-05T16:09:17.925Z,22.70
2022-10-05T16:11:59.668Z,22.60
2022-10-05T16:14:39.660Z,22.40
2022-10-05T16:17:21.745Z,22.30
2022-10-05T16:20:14.895Z,22.30
2022-10-05T16:22:48.528Z,22.30
2022-10-05T16:25:23.198Z,22.20
2022-10-05T16:28:07.315Z,22.20
2022-10-05T16:30:46.402Z,22.20
2022-10-05T16:33:22.446Z,22.10
2022-10-05T16:36:03.087Z,22.10
2022-10-05T16:38:38.694Z,22.10
2022-10-05T16:41:13.985Z,22.00
2022-10-05T16:43:49.348Z,22.00
2022-10-05T16:46:27.660Z,21.90
2022-10-05T16:49:04.013Z,21.90
2022-10-05T16:51:40.114Z,21.70
2022-10-05T16:54:19.070Z,21.50
2022-10-05T16:56:51.786Z,21.40
2022-10-05T16:59:41.344Z,21.30
2022-10-05T17:02:19.100Z,21.20
2022-10-05T17:04:56.944Z,21.10
2022-10-05T17:07:49.200Z,21.10
2022-10-05T17:10:45.820Z,21.00
2022-10-05T17:13:32.024Z,20.90
2022-10-05T17:16:08.433Z,20.80
2022-10-05T17:19:03.469Z,20.70
2022-10-05T17:21:38.359Z,20.60
2022-10-05T17:24:23.102Z,20.60
2022-10-05T17:26:58.395Z,20.40
2022-10-05T17:29:47.399Z,20.30
2022-10-05T17:32:36.059Z,20.10
2022-10-05T17:35:22.167Z,20.00
2022-10-05T17:38:14.265Z,19.90
2022-10-05T17:41:03.033Z,19.80
2022-10-05T17:43:32.558Z,19.80
2022-10-05T17:46:01.718Z,19.70
2022-10-05T17:48:45.047Z,19.50
2022-10-05T17:52:16.944Z,19.40
2022-10-05T17:55:26.636Z,19.40
2022-10-05T17:57:58.526Z,19.30
2022-10-05T18:00:41.863Z,19.20
2022-10-05T18:03:39.107Z,19.20
2022-10-05T18:06:34.452Z,19.10
2022-10-05T18:09:32.939Z,19.10
2022-10-05T18:12:39.575Z,19.00
2022-10-05T18:15:48.320Z,19.00
2022-10-05T18:18:38.550Z,19.00
2022-10-05T18:21:29.616Z,19.00
2022-10-05T18:24:36.543Z,18.90
2022-10-05T18:27:45.950Z,18.90
2022-10-05T18:30:22.089Z,18.90
2022-10-05T18:33:20.995Z,18.90
2022-10-05T18:36:06.787Z,18.90
2022-10-05T18:38:45.382Z,18.90
2022-10-05T18:41:24.786Z,18.90
2022-10-05T18:44:03.410Z,18.90
2022-10-05T18:46:47.875Z,18.90
2022-10-05T18:49:34.516Z,18.90
2022-10-05T18:52:10.437Z,18.90
2022-10-05T18:54:50.750Z,18.90
2022-10-05T18:57:58.763Z,18.90
2022-10-05T19:00:32.218Z,19.00
2022-10-05T19:03:08.163Z,19.00
2022-10-05T19:05:49.237Z,19.00
2022-10-05T19:08:28.794Z,19.00
2022-10-05T19:11:02.864Z,19.00
2022-10-05T19:13:42.640Z,19.00
2022-10-05T19:16:24.883Z,18.90
2022-10-05T19:19:22.281Z,19.00
2022-10-05T19:22:04.026Z,19.00
2022-10-05T19:24:51.635Z,18.90
2022-10-05T19:27:34.464Z,18.90
2022-10-05T19:30:21.756Z,18.90
2022-10-05T19:33:21.183Z,18.80
2022-10-05T19:36:01.625Z,18.80
2022-10-05T19:38:37.409Z,18.90
2022-10-05T19:41:14.578Z,18.80
2022-10-05T19:44:09.255Z,18.70
2022-10-05T19:46:56.235Z,18.70
2022-10-05T19:49:38.631Z,18.70
2022-10-05T19:52:13.898Z,18.80
2022-10-05T19:54:42.438Z,18.80
2022-10-05T19:57:17.978Z,18.70
2022-10-05T19:59:47.532Z,18.70
2022-10-05T20:02:17.527Z,18.70
2022-10-05T20:04:49.434Z,18.70
2022-10-05T20:07:21.451Z,18.70
2022-10-05T20:09:54.892Z,18.60
2022-10-05T20:12:23.537Z,18.70
2022-10-05T20:15:24.350Z,18.70
2022-10-05T20:18:09.804Z,18.60
2022-10-05T20:20:41.621Z,18.60
2022-10-05T20:23:24.194Z,18.60
2022-10-05T20:26:10.324Z,18.60
2022-10-05T20:28:38.300Z,18.50
2022-10-05T20:31:08.201Z,18.60
2022-10-05T20:33:36.115Z,18.60
2022-10-05T20:36:04.463Z,18.60
2022-10-05T20:38:40.069Z,18.60
2022-10-05T20:41:08.851Z,18.60
2022-10-05T20:46:21.056Z,18.60
2022-10-05T20:48:48.920Z,18.60
2022-10-05T20:51:19.228Z,18.60
2022-10-05T20:53:51.211Z,18.60
2022-10-05T20:56:21.800Z,18.60
2022-10-05T20:58:49.665Z,18.60
2022-10-05T21:01:18.345Z,18.60
2022-10-05T21:03:46.884Z,18.60
2022-10-05T21:06:14.725Z,18.60
2022-10-05T21:08:42.592Z,18.60
2022-10-05T21:11:12.052Z,18.60
2022-10-05T21:13:44.543Z,18.60
2022-10-05T21:16:13.349Z,18.60
2022-10-05T21:18:41.482Z,18.60
2022-10-05T21:21:09.610Z,18.60
2022-10-05T21:23:37.916Z,18.60
2022-10-05T21:26:07.806Z,18.60
2022-10-05T21:28:37.250Z,18.60
2022-10-05T21:31:05.252Z,18.60
2022-10-05T21:33:33.422Z,18.70
2022-10-05T21:36:01.383Z,18.60
2022-10-05T21:38:30.256Z,18.70
2022-10-05T21:40:58.405Z,18.70
2022-10-05T21:43:26.903Z,18.70
2022-10-05T21:45:56.932Z,18.60
2022-10-05T21:48:26.585Z,18.60
2022-10-05T21:50:55.032Z,18.60
2022-10-05T21:53:27.837Z,18.60
2022-10-05T21:55:58.625Z,18.60
2022-10-05T21:58:31.234Z,18.60
2022-10-05T22:01:00.732Z,18.60
2022-10-05T22:03:29.092Z,18.60
2022-10-05T22:05:57.019Z,18.60
2022-10-05T22:08:27.627Z,18.50
2022-10-05T22:10:56.405Z,18.50
2022-10-05T22:13:25.873Z,18.50
2022-10-05T22:15:55.394Z,18.40
2022-10-05T22:18:26.842Z,18.20
2022-10-05T22:20:54.974Z,17.90
2022-10-05T22:23:22.846Z,17.70
2022-10-05T22:25:50.751Z,17.50
2022-10-05T22:28:18.642Z,17.30
2022-10-05T22:30:47.670Z,17.00
2022-10-05T22:33:15.501Z,16.80
2022-10-05T22:35:44.807Z,16.60
2022-10-05T22:38:12.625Z,16.60
2022-10-05T22:40:40.422Z,16.50
2022-10-05T22:43:08.326Z,16.40
2022-10-05T22:45:36.215Z,16.30
2022-10-05T22:48:04.223Z,16.20
2022-10-05T22:50:32.095Z,16.20
2022-10-05T22:53:01.289Z,16.10
2022-10-05T22:55:29.484Z,16.10
2022-10-05T22:57:57.367Z,16.10
2022-10-05T23:00:40.470Z,16.10
2022-10-05T23:03:13.129Z,16.10
2022-10-05T23:05:41.015Z,16.10
2022-10-05T23:08:10.227Z,16.10
2022-10-05T23:10:38.080Z,16.10
2022-10-05T23:13:06.207Z,16.10
2022-10-05T23:15:34.462Z,16.10
2022-10-05T23:18:02.287Z,16.10
2022-10-05T23:20:30.146Z,16.10
2022-10-05T23:22:59.776Z,16.10
2022-10-05T23:25:28.957Z,16.10
2022-10-05T23:27:56.824Z,16.10
2022-10-05T23:30:24.793Z,16.20
2022-10-05T23:32:52.767Z,16.20
2022-10-05T23:35:20.606Z,16.20
2022-10-05T23:37:48.517Z,16.20
2022-10-05T23:40:16.479Z,16.10
2022-10-05T23:42:46.802Z,16.20
2022-10-05T23:45:14.703Z,16.20
2022-10-05T23:47:42.583Z,16.10
2022-10-05T23:50:11.017Z,16.00
2022-10-05T23:52:39.031Z,15.90
2022-10-05T23:55:07.873Z,15.80
2022-10-05T23:57:35.699Z,15.80
